sensor_id;sensor_type;location;lat;lon;timestamp;pressure;altitude;pressure_sealevel;temperature;humidity
12868;BME280;33517;49.866;8.320;2022-10-17T00:02:25;100870.13;;;14.44;100.00
12868;BME280;33517;49.866;8.320;2022-10-17T00:05:17;100863.81;;;14.45;100.00
12868;BME280;33517;49.866;8.320;2022-10-17T00:08:10;100874.94;;;14.41;100.00
12868;BME280;33517;49.866;8.320;2022-10-17T00:11:06;100873.47;;;14.38;100.00
12868;BME280;33517;49.866;8.320;2022-10-17T00:13:58;100873.84;;;14.35;100.00
12868;BME280;33517;49.866;8.320;2022-10-17T00:16:50;100870.69;;;14.32;100.00
12868;BME280;33517;49.866;8.320;2022-10-17T00:19:42;100873.91;;;14.27;100.00
12868;BME280;33517;49.866;8.320;2022-10-17T00:22:34;100871.75;;;14.23;100.00
12868;BME280;33517;49.866;8.320;2022-10-17T00:25:26;100875.56;;;14.20;100.00
12868;BME280;33517;49.866;8.320;2022-10-17T00:28:19;100871.47;;;14.18;100.00
12868;BME280;33517;49.866;8.320;2022-10-17T00:31:11;100882.50;;;14.21;100.00
12868;BME280;33517;49.866;8.320;2022-10-17T00:34:02;100885.41;;;14.34;100.00
12868;BME280;33517;49.866;8.320;2022-10-17T00:36:54;100888.94;;;14.49;100.00
12868;BME280;33517;49.866;8.320;2022-10-17T00:39:46;100892.25;;;14.66;100.00
12868;BME280;33517;49.866;8.320;2022-10-17T00:42:38;100900.06;;;14.97;100.00
12868;BME280;33517;49.866;8.320;2022-10-17T00:45:31;100900.00;;;15.19;100.00
12868;BME280;33517;49.866;8.320;2022-10-17T00:48:23;100900.63;;;15.36;100.00
12868;BME280;33517;49.866;8.320;2022-10-17T00:51:18;100897.28;;;15.42;100.00
12868;BME280;33517;49.866;8.320;2022-10-17T00:54:13;100890.59;;;15.46;100.00
12868;BME280;33517;49.866;8.320;2022-10-17T00:57:06;100893.91;;;15.48;100.00
12868;BME280;33517;49.866;8.320;2022-10-17T01:00:01;100895.97;;;15.52;100.00
12868;BME280;33517;49.866;8.320;2022-10-17T01:02:56;100906.88;;;15.43;100.00
12868;BME280;33517;49.866;8.320;2022-10-17T01:05:48;100902.75;;;15.40;100.00
12868;BME280;33517;49.866;8.320;2022-10-17T01:08:40;100906.78;;;15.36;100.00
12868;BME280;33517;49.866;8.320;2022-10-17T01:11:38;100904.84;;;15.30;100.00
12868;BME280;33517;49.866;8.320;2022-10-17T01:14:40;100905.75;;;15.23;100.00
12868;BME280;33517;49.866;8.320;2022-10-17T01:17:45;100906.94;;;15.35;100.00
12868;BME280;33517;49.866;8.320;2022-10-17T01:21:13;100897.16;;;15.35;100.00
12868;BME280;33517;49.866;8.320;2022-10-17T01:24:36;100900.63;;;15.36;100.00
12868;BME280;33517;49.866;8.320;2022-10-17T01:27:50;100896.59;;;15.40;100.00
12868;BME280;33517;49.866;8.320;2022-10-17T01:30:55;100898.44;;;15.39;100.00
12868;BME280;33517;49.866;8.320;2022-10-17T01:33:58;100894.94;;;15.39;100.00
12868;BME280;33517;49.866;8.320;2022-10-17T01:36:54;100894.31;;;15.37;100.00
12868;BME280;33517;49.866;8.320;2022-10-17T01:39:51;100897.59;;;15.39;100.00
12868;BME280;33517;49.866;8.320;2022-10-17T01:42:52;100904.56;;;15.40;100.00
12868;BME280;33517;49.866;8.320;2022-10-17T01:45:50;100893.13;;;15.39;100.00
12868;BME280;33517;49.866;8.320;2022-10-17T01:48:44;100891.03;;;15.35;100.00
12868;BME280;33517;49.866;8.320;2022-10-17T01:51:39;100898.19;;;15.34;100.00
12868;BME280;33517;49.866;8.320;2022-10-17T01:54:38;100896.69;;;15.32;100.00
12868;BME280;33517;49.866;8.320;2022-10-17T01:57:33;100892.22;;;15.32;100.00
12868;BME280;33517;49.866;8.320;2022-10-17T02:00:27;100896.88;;;15.30;100.00
12868;BME280;33517;49.866;8.320;2022-10-17T02:03:21;100893.22;;;15.31;100.00
12868;BME280;33517;49.866;8.320;2022-10-17T02:06:16;100896.59;;;15.40;100.00
12868;BME280;33517;49.866;8.320;2022-10-17T02:09:20;100889.31;;;15.42;100.00
12868;BME280;33517;49.866;8.320;2022-10-17T02:12:28;100892.50;;;15.37;100.00
12868;BME280;33517;49.866;8.320;2022-10-17T02:19:08;100890.13;;;15.28;100.00
12868;BME280;33517;49.866;8.320;2022-10-17T02:22:13;100893.94;;;15.25;100.00
12868;BME280;33517;49.866;8.320;2022-10-17T02:25:13;100890.75;;;15.30;100.00
12868;BME280;33517;49.866;8.320;2022-10-17T02:28:17;100896.16;;;15.36;100.00
12868;BME280;33517;49.866;8.320;2022-10-17T02:31:14;100898.81;;;15.36;100.00
12868;BME280;33517;49.866;8.320;2022-10-17T02:34:08;100895.13;;;15.37;100.00
12868;BME280;33517;49.866;8.320;2022-10-17T02:37:06;100897.94;;;15.44;100.00
12868;BME280;33517;49.866;8.320;2022-10-17T02:39:59;100890.59;;;15.46;100.00
12868;BME280;33517;49.866;8.320;2022-10-17T02:42:53;100889.59;;;15.47;100.00
12868;BME280;33517;49.866;8.320;2022-10-17T02:45:45;100894.69;;;15.48;100.00
12868;BME280;33517;49.866;8.320;2022-10-17T02:48:40;100896.72;;;15.46;100.00
12868;BME280;33517;49.866;8.320;2022-10-17T02:51:39;100907.06;;;15.41;100.00
12868;BME280;33517;49.866;8.320;2022-10-17T02:54:38;100898.63;;;15.38;100.00
12868;BME280;33517;49.866;8.320;2022-10-17T02:57:35;100897.34;;;15.34;100.00
12868;BME280;33517;49.866;8.320;2022-10-17T03:00:29;100897.72;;;15.31;100.00
12868;BME280;33517;49.866;8.320;2022-10-17T03:03:23;100897.09;;;15.29;100.00
12868;BME280;33517;49.866;8.320;2022-10-17T03:06:15;100902.38;;;15.29;100.00
12868;BME280;33517;49.866;8.320;2022-10-17T03:09:07;100906.66;;;15.30;100.00
12868;BME280;33517;49.866;8.320;2022-10-17T03:12:00;100905.09;;;15.35;100.00
12868;BME280;33517;49.866;8.320;2022-10-17T03:14:52;100903.66;;;15.33;100.00
12868;BME280;33517;49.866;8.320;2022-10-17T03:17:44;100907.50;;;15.30;100.00
12868;BME280;33517;49.866;8.320;2022-10-17T03:20:36;100911.72;;;15.25;100.00
12868;BME280;33517;49.866;8.320;2022-10-17T03:23:28;100924.22;;;15.16;100.00
12868;BME280;33517;49.866;8.320;2022-10-17T03:26:20;100929.44;;;15.10;100.00
12868;BME280;33517;49.866;8.320;2022-10-17T03:29:13;100928.69;;;15.01;100.00
12868;BME280;33517;49.866;8.320;2022-10-17T03:32:05;100930.34;;;15.02;100.00
12868;BME280;33517;49.866;8.320;2022-10-17T03:34:57;100928.50;;;15.03;100.00
12868;BME280;33517;49.866;8.320;2022-10-17T03:37:49;100929.84;;;14.99;100.00
12868;BME280;33517;49.866;8.320;2022-10-17T03:40:41;100930.50;;;15.01;100.00
12868;BME280;33517;49.866;8.320;2022-10-17T03:43:33;100933.97;;;15.01;100.00
12868;BME280;33517;49.866;8.320;2022-10-17T03:46:26;100931.53;;;15.00;100.00
12868;BME280;33517;49.866;8.320;2022-10-17T03:49:18;100935.34;;;14.97;100.00
12868;BME280;33517;49.866;8.320;2022-10-17T03:52:10;100942.00;;;14.93;100.00
12868;BME280;33517;49.866;8.320;2022-10-17T03:55:03;100946.97;;;14.96;100.00
12868;BME280;33517;49.866;8.320;2022-10-17T03:57:55;100947.50;;;14.92;100.00
12868;BME280;33517;49.866;8.320;2022-10-17T04:00:46;100953.25;;;14.95;100.00
12868;BME280;33517;49.866;8.320;2022-10-17T04:03:40;100958.75;;;14.94;100.00
12868;BME280;33517;49.866;8.320;2022-10-17T04:06:32;100952.44;;;14.95;100.00
12868;BME280;33517;49.866;8.320;2022-10-17T04:09:24;100959.56;;;14.94;100.00
12868;BME280;33517;49.866;8.320;2022-10-17T04:12:16;100959.28;;;14.89;100.00
12868;BME280;33517;49.866;8.320;2022-10-17T04:15:08;100961.81;;;14.83;100.00
12868;BME280;33517;49.866;8.320;2022-10-17T04:18:00;100962.00;;;14.81;100.00
12868;BME280;33517;49.866;8.320;2022-10-17T04:20:53;100953.50;;;14.86;100.00
12868;BME280;33517;49.866;8.320;2022-10-17T04:23:45;100959.44;;;14.88;100.00
12868;BME280;33517;49.866;8.320;2022-10-17T04:26:37;100961.22;;;14.95;100.00
12868;BME280;33517;49.866;8.320;2022-10-17T04:29:29;100957.00;;;15.01;100.00
12868;BME280;33517;49.866;8.320;2022-10-17T04:32:21;100964.81;;;15.02;100.00
12868;BME280;33517;49.866;8.320;2022-10-17T04:35:13;100952.81;;;15.06;100.00
12868;BME280;33517;49.866;8.320;2022-10-17T04:38:07;100963.06;;;15.09;100.00
12868;BME280;33517;49.866;8.320;2022-10-17T04:40:59;100956.41;;;15.13;100.00
12868;BME280;33517;49.866;8.320;2022-10-17T04:43:52;100955.19;;;15.16;100.00
12868;BME280;33517;49.866;8.320;2022-10-17T04:46:44;100960.34;;;15.17;100.00
12868;BME280;33517;49.866;8.320;2022-10-17T04:49:36;100962.63;;;15.20;100.00
12868;BME280;33517;49.866;8.320;2022-10-17T04:52:28;100963.78;;;15.18;100.00
12868;BME280;33517;49.866;8.320;2022-10-17T04:55:21;100961.00;;;15.19;100.00
12868;BME280;33517;49.866;8.320;2022-10-17T04:58:13;100964.09;;;15.23;100.00
12868;BME280;33517;49.866;8.320;2022-10-17T05:01:06;100958.78;;;15.23;100.00
12868;BME280;33517;49.866;8.320;2022-10-17T05:03:58;100962.09;;;15.25;100.00
12868;BME280;33517;49.866;8.320;2022-10-17T05:06:50;100967.00;;;15.28;100.00
12868;BME280;33517;49.866;8.320;2022-10-17T05:09:41;100969.03;;;15.26;100.00
12868;BME280;33517;49.866;8.320;2022-10-17T05:12:34;100968.69;;;15.29;100.00
12868;BME280;33517;49.866;8.320;2022-10-17T05:15:26;100962.34;;;15.30;100.00
12868;BME280;33517;49.866;8.320;2022-10-17T05:18:18;100959.69;;;15.30;100.00
12868;BME280;33517;49.866;8.320;2022-10-17T05:21:10;100960.22;;;15.25;100.00
12868;BME280;33517;49.866;8.320;2022-10-17T05:24:04;100958.97;;;15.21;100.00
12868;BME280;33517;49.866;8.320;2022-10-17T05:26:56;100967.91;;;15.20;100.00
12868;BME280;33517;49.866;8.320;2022-10-17T05:29:49;100969.28;;;15.16;100.00
12868;BME280;33517;49.866;8.320;2022-10-17T05:32:41;100976.41;;;15.16;100.00
12868;BME280;33517;49.866;8.320;2022-10-17T05:35:33;100969.84;;;15.12;100.00
12868;BME280;33517;49.866;8.320;2022-10-17T05:38:25;100981.16;;;15.06;100.00
12868;BME280;33517;49.866;8.320;2022-10-17T05:41:17;100983.44;;;14.94;100.00
12868;BME280;33517;49.866;8.320;2022-10-17T05:44:10;100980.84;;;14.86;100.00
12868;BME280;33517;49.866;8.320;2022-10-17T05:47:04;100985.13;;;14.87;100.00
12868;BME280;33517;49.866;8.320;2022-10-17T05:49:56;100984.47;;;14.85;100.00
12868;BME280;33517;49.866;8.320;2022-10-17T05:52:51;100984.31;;;14.87;100.00
12868;BME280;33517;49.866;8.320;2022-10-17T05:55:43;100987.44;;;14.90;100.00
12868;BME280;33517;49.866;8.320;2022-10-17T05:58:38;100988.25;;;14.91;100.00
12868;BME280;33517;49.866;8.320;2022-10-17T06:01:30;100985.69;;;14.97;100.00
12868;BME280;33517;49.866;8.320;2022-10-17T06:04:23;100992.94;;;15.03;100.00
12868;BME280;33517;49.866;8.320;2022-10-17T06:07:17;100992.09;;;15.03;100.00
12868;BME280;33517;49.866;8.320;2022-10-17T06:10:09;100998.25;;;15.03;100.00
12868;BME280;33517;49.866;8.320;2022-10-17T06:13:04;100999.72;;;15.06;100.00
12868;BME280;33517;49.866;8.320;2022-10-17T06:15:56;101006.66;;;15.07;100.00
12868;BME280;33517;49.866;8.320;2022-10-17T06:18:48;101002.19;;;15.07;100.00
12868;BME280;33517;49.866;8.320;2022-10-17T06:21:42;101012.25;;;15.12;100.00
12868;BME280;33517;49.866;8.320;2022-10-17T06:24:34;101015.66;;;15.20;100.00
12868;BME280;33517;49.866;8.320;2022-10-17T06:27:26;101017.22;;;15.29;100.00
12868;BME280;33517;49.866;8.320;2022-10-17T06:30:18;101024.91;;;15.39;100.00
12868;BME280;33517;49.866;8.320;2022-10-17T06:33:09;101026.59;;;15.54;100.00
12868;BME280;33517;49.866;8.320;2022-10-17T06:36:02;101030.41;;;17.03;100.00
12868;BME280;33517;49.866;8.320;2022-10-17T06:38:56;101028.91;;;19.30;93.45
12868;BME280;33517;49.866;8.320;2022-10-17T06:41:48;101037.25;;;20.43;84.01
12868;BME280;33517;49.866;8.320;2022-10-17T06:44:40;101035.28;;;21.01;85.18
12868;BME280;33517;49.866;8.320;2022-10-17T06:47:32;101038.56;;;21.88;82.67
12868;BME280;33517;49.866;8.320;2022-10-17T06:50:23;101044.69;;;23.26;78.59
12868;BME280;33517;49.866;8.320;2022-10-17T06:53:15;101051.16;;;23.71;76.11
12868;BME280;33517;49.866;8.320;2022-10-17T06:56:09;101050.09;;;23.37;75.28
12868;BME280;33517;49.866;8.320;2022-10-17T06:59:01;101054.53;;;23.66;73.87
12868;BME280;33517;49.866;8.320;2022-10-17T07:01:53;101061.63;;;24.19;69.43
12868;BME280;33517;49.866;8.320;2022-10-17T07:04:45;101068.13;;;24.91;64.17
12868;BME280;33517;49.866;8.320;2022-10-17T07:07:37;101059.97;;;25.02;64.34
12868;BME280;33517;49.866;8.320;2022-10-17T07:10:29;101062.91;;;26.27;61.53
12868;BME280;33517;49.866;8.320;2022-10-17T07:13:29;101067.13;;;25.41;61.59
12868;BME280;33517;49.866;8.320;2022-10-17T07:16:21;101069.84;;;26.01;60.14
12868;BME280;33517;49.866;8.320;2022-10-17T07:19:13;101074.09;;;25.97;59.68
12868;BME280;33517;49.866;8.320;2022-10-17T07:22:04;101067.34;;;27.18;58.21
12868;BME280;33517;49.866;8.320;2022-10-17T07:24:56;101067.31;;;27.45;56.51
12868;BME280;33517;49.866;8.320;2022-10-17T07:27:48;101069.34;;;26.96;56.15
12868;BME280;33517;49.866;8.320;2022-10-17T07:30:44;101078.50;;;28.00;54.27
12868;BME280;33517;49.866;8.320;2022-10-17T07:33:36;101088.91;;;28.28;54.57
12868;BME280;33517;49.866;8.320;2022-10-17T07:36:28;101083.13;;;28.81;51.28
12868;BME280;33517;49.866;8.320;2022-10-17T07:39:21;101083.34;;;28.55;46.96
12868;BME280;33517;49.866;8.320;2022-10-17T07:42:13;101088.59;;;29.27;47.77
12868;BME280;33517;49.866;8.320;2022-10-17T07:45:06;101078.19;;;29.99;47.52
12868;BME280;33517;49.866;8.320;2022-10-17T07:47:59;101094.19;;;31.42;46.57
12868;BME280;33517;49.866;8.320;2022-10-17T07:50:51;101091.84;;;30.92;46.38
12868;BME280;33517;49.866;8.320;2022-10-17T07:53:43;101087.53;;;30.85;43.26
12868;BME280;33517;49.866;8.320;2022-10-17T07:56:35;101084.75;;;30.96;43.27
12868;BME280;33517;49.866;8.320;2022-10-17T07:59:27;101092.50;;;30.20;43.61
12868;BME280;33517;49.866;8.320;2022-10-17T08:02:21;101086.44;;;29.19;45.07
12868;BME280;33517;49.866;8.320;2022-10-17T08:05:15;101094.06;;;28.30;48.56
12868;BME280;33517;49.866;8.320;2022-10-17T08:08:07;101084.97;;;27.94;49.58
12868;BME280;33517;49.866;8.320;2022-10-17T08:11:01;101082.59;;;28.07;48.36
12868;BME280;33517;49.866;8.320;2022-10-17T08:13:53;101081.63;;;27.87;48.92
12868;BME280;33517;49.866;8.320;2022-10-17T08:16:45;101080.06;;;27.17;50.16
12868;BME280;33517;49.866;8.320;2022-10-17T08:19:37;101085.66;;;27.38;48.72
12868;BME280;33517;49.866;8.320;2022-10-17T08:22:32;101095.34;;;27.33;49.34
12868;BME280;33517;49.866;8.320;2022-10-17T08:25:24;101097.91;;;27.92;49.77
12868;BME280;33517;49.866;8.320;2022-10-17T08:28:16;101092.00;;;26.95;48.96
12868;BME280;33517;49.866;8.320;2022-10-17T08:31:10;101084.50;;;26.49;50.58
12868;BME280;33517;49.866;8.320;2022-10-17T08:34:02;101091.53;;;25.90;51.46
12868;BME280;33517;49.866;8.320;2022-10-17T08:36:54;101090.91;;;25.83;51.62
12868;BME280;33517;49.866;8.320;2022-10-17T08:39:47;101095.72;;;26.62;50.21
12868;BME280;33517;49.866;8.320;2022-10-17T08:42:53;101098.69;;;26.39;50.34
12868;BME280;33517;49.866;8.320;2022-10-17T08:45:52;101097.59;;;26.62;51.67
12868;BME280;33517;49.866;8.320;2022-10-17T08:48:46;101093.00;;;27.84;49.88
12868;BME280;33517;49.866;8.320;2022-10-17T08:51:44;101087.28;;;27.39;48.27
12868;BME280;33517;49.866;8.320;2022-10-17T08:54:40;101093.41;;;26.06;51.41
12868;BME280;33517;49.866;8.320;2022-10-17T08:57:34;101092.59;;;26.05;52.99
12868;BME280;33517;49.866;8.320;2022-10-17T09:00:27;101092.19;;;27.42;52.02
12868;BME280;33517;49.866;8.320;2022-10-17T09:03:33;101088.84;;;26.76;49.25
12868;BME280;33517;49.866;8.320;2022-10-17T09:06:32;101097.81;;;27.08;49.96
12868;BME280;33517;49.866;8.320;2022-10-17T09:09:31;101087.34;;;27.49;50.30
12868;BME280;33517;49.866;8.320;2022-10-17T09:12:34;101105.13;;;28.23;48.53
12868;BME280;33517;49.866;8.320;2022-10-17T09:15:38;101119.53;;;29.36;47.12
12868;BME280;33517;49.866;8.320;2022-10-17T09:18:35;101115.88;;;31.75;40.99
12868;BME280;33517;49.866;8.320;2022-10-17T09:21:35;101112.19;;;30.99;42.58
12868;BME280;33517;49.866;8.320;2022-10-17T09:24:38;101108.84;;;32.22;41.81
12868;BME280;33517;49.866;8.320;2022-10-17T09:27:34;101112.47;;;32.17;40.18
12868;BME280;33517;49.866;8.320;2022-10-17T09:30:41;101118.34;;;32.06;38.86
12868;BME280;33517;49.866;8.320;2022-10-17T09:33:37;101120.47;;;32.32;40.18
12868;BME280;33517;49.866;8.320;2022-10-17T09:36:33;101106.00;;;30.40;41.19
12868;BME280;33517;49.866;8.320;2022-10-17T09:39:25;101109.44;;;30.55;41.05
12868;BME280;33517;49.866;8.320;2022-10-17T09:42:24;101109.28;;;31.24;40.13
12868;BME280;33517;49.866;8.320;2022-10-17T09:45:21;101116.78;;;31.42;39.22
12868;BME280;33517;49.866;8.320;2022-10-17T09:48:22;101121.53;;;32.31;38.98
12868;BME280;33517;49.866;8.320;2022-10-17T09:51:16;101123.78;;;31.77;39.53
12868;BME280;33517;49.866;8.320;2022-10-17T09:54:19;101132.19;;;32.09;38.20
12868;BME280;33517;49.866;8.320;2022-10-17T09:57:14;101121.72;;;32.40;39.26
12868;BME280;33517;49.866;8.320;2022-10-17T10:00:12;101125.22;;;32.83;37.69
12868;BME280;33517;49.866;8.320;2022-10-17T10:03:15;101129.22;;;33.73;37.53
12868;BME280;33517;49.866;8.320;2022-10-17T10:06:13;101129.63;;;33.53;36.04
12868;BME280;33517;49.866;8.320;2022-10-17T10:09:20;101121.41;;;31.70;38.07
12868;BME280;33517;49.866;8.320;2022-10-17T10:12:16;101114.97;;;30.94;39.80
12868;BME280;33517;49.866;8.320;2022-10-17T10:15:31;101122.50;;;32.64;39.34
12868;BME280;33517;49.866;8.320;2022-10-17T10:18:31;101129.50;;;32.89;37.06
12868;BME280;33517;49.866;8.320;2022-10-17T10:21:25;101118.59;;;32.04;38.48
12868;BME280;33517;49.866;8.320;2022-10-17T10:24:17;101130.84;;;33.10;36.74
12868;BME280;33517;49.866;8.320;2022-10-17T10:27:12;101132.16;;;32.94;36.20
12868;BME280;33517;49.866;8.320;2022-10-17T10:30:06;101136.66;;;33.22;37.50
12868;BME280;33517;49.866;8.320;2022-10-17T10:33:10;101146.09;;;32.74;36.80
12868;BME280;33517;49.866;8.320;2022-10-17T10:36:04;101140.59;;;31.55;39.27
12868;BME280;33517;49.866;8.320;2022-10-17T10:38:58;101136.25;;;32.54;38.98
12868;BME280;33517;49.866;8.320;2022-10-17T10:41:50;101127.56;;;34.18;37.09
12868;BME280;33517;49.866;8.320;2022-10-17T10:44:42;101138.97;;;34.61;33.98
12868;BME280;33517;49.866;8.320;2022-10-17T10:47:34;101136.69;;;33.54;36.61
12868;BME280;33517;49.866;8.320;2022-10-17T10:50:28;101143.06;;;33.63;36.68
12868;BME280;33517;49.866;8.320;2022-10-17T10:53:32;101140.91;;;34.33;36.02
12868;BME280;33517;49.866;8.320;2022-10-17T10:56:29;101135.63;;;35.66;34.01
12868;BME280;33517;49.866;8.320;2022-10-17T10:59:29;101134.44;;;34.29;33.42
12868;BME280;33517;49.866;8.320;2022-10-17T11:02:26;101140.03;;;33.51;35.43
12868;BME280;33517;49.866;8.320;2022-10-17T11:05:25;101144.06;;;33.35;37.14
12868;BME280;33517;49.866;8.320;2022-10-17T11:08:23;101139.34;;;33.73;37.16
12868;BME280;33517;49.866;8.320;2022-10-17T11:11:25;101134.31;;;34.34;34.68
12868;BME280;33517;49.866;8.320;2022-10-17T11:14:37;101142.25;;;34.08;35.05
12868;BME280;33517;49.866;8.320;2022-10-17T11:17:34;101140.84;;;33.65;36.08
12868;BME280;33517;49.866;8.320;2022-10-17T11:20:37;101130.66;;;33.84;36.75
12868;BME280;33517;49.866;8.320;2022-10-17T11:23:39;101134.34;;;34.20;37.07
12868;BME280;33517;49.866;8.320;2022-10-17T11:26:39;101136.66;;;34.90;35.27
12868;BME280;33517;49.866;8.320;2022-10-17T11:29:34;101140.34;;;35.21;34.23
12868;BME280;33517;49.866;8.320;2022-10-17T11:32:33;101137.66;;;34.94;35.72
12868;BME280;33517;49.866;8.320;2022-10-17T11:35:30;101144.22;;;35.06;35.79
12868;BME280;33517;49.866;8.320;2022-10-17T11:38:31;101140.16;;;34.68;35.10
12868;BME280;33517;49.866;8.320;2022-10-17T11:41:30;101143.31;;;34.75;36.17
12868;BME280;33517;49.866;8.320;2022-10-17T11:44:29;101149.97;;;34.83;35.18
12868;BME280;33517;49.866;8.320;2022-10-17T11:47:30;101145.06;;;33.58;37.77
12868;BME280;33517;49.866;8.320;2022-10-17T11:50:29;101145.47;;;34.51;36.42
12868;BME280;33517;49.866;8.320;2022-10-17T11:53:23;101144.56;;;33.56;38.02
12868;BME280;33517;49.866;8.320;2022-10-17T11:56:33;101141.44;;;33.30;38.02
12868;BME280;33517;49.866;8.320;2022-10-17T11:59:45;101132.53;;;32.69;39.14
12868;BME280;33517;49.866;8.320;2022-10-17T12:02:44;101129.97;;;33.92;37.13
12868;BME280;33517;49.866;8.320;2022-10-17T12:05:43;101120.28;;;34.00;37.43
12868;BME280;33517;49.866;8.320;2022-10-17T12:08:43;101127.25;;;33.46;37.28
12868;BME280;33517;49.866;8.320;2022-10-17T12:11:44;101125.09;;;32.74;38.96
12868;BME280;33517;49.866;8.320;2022-10-17T12:14:42;101130.41;;;31.95;38.95
12868;BME280;33517;49.866;8.320;2022-10-17T12:17:37;101139.00;;;32.30;38.70
12868;BME280;33517;49.866;8.320;2022-10-17T12:20:33;101131.00;;;31.92;39.56
12868;BME280;33517;49.866;8.320;2022-10-17T12:23:26;101137.25;;;32.16;39.57
12868;BME280;33517;49.866;8.320;2022-10-17T12:26:24;101121.47;;;31.94;39.26
12868;BME280;33517;49.866;8.320;2022-10-17T12:29:25;101129.19;;;31.53;39.77
12868;BME280;33517;49.866;8.320;2022-10-17T12:32:19;101133.47;;;31.26;39.51
12868;BME280;33517;49.866;8.320;2022-10-17T12:35:18;101134.81;;;31.62;39.41
12868;BME280;33517;49.866;8.320;2022-10-17T12:38:23;101139.72;;;32.17;37.67
12868;BME280;33517;49.866;8.320;2022-10-17T12:41:15;101134.41;;;32.02;37.41
12868;BME280;33517;49.866;8.320;2022-10-17T12:44:34;101139.31;;;32.05;37.64
12868;BME280;33517;49.866;8.320;2022-10-17T12:47:36;101137.16;;;32.26;37.10
12868;BME280;33517;49.866;8.320;2022-10-17T12:51:00;101142.34;;;33.07;36.61
12868;BME280;33517;49.866;8.320;2022-10-17T12:53:56;101143.63;;;33.46;37.05
12868;BME280;33517;49.866;8.320;2022-10-17T12:56:49;101130.59;;;34.30;35.89
12868;BME280;33517;49.866;8.320;2022-10-17T12:59:42;101130.19;;;34.09;34.13
12868;BME280;33517;49.866;8.320;2022-10-17T13:02:36;101120.84;;;33.70;35.58
12868;BME280;33517;49.866;8.320;2022-10-17T13:05:31;101127.88;;;33.25;36.81
12868;BME280;33517;49.866;8.320;2022-10-17T13:08:26;101128.47;;;33.22;37.10
12868;BME280;33517;49.866;8.320;2022-10-17T13:11:22;101129.53;;;33.72;35.13
12868;BME280;33517;49.866;8.320;2022-10-17T13:14:18;101132.56;;;33.38;36.55
12868;BME280;33517;49.866;8.320;2022-10-17T13:17:21;101125.88;;;33.63;36.07
12868;BME280;33517;49.866;8.320;2022-10-17T13:20:20;101140.84;;;33.65;36.83
12868;BME280;33517;49.866;8.320;2022-10-17T13:23:21;101137.69;;;33.07;37.12
12868;BME280;33517;49.866;8.320;2022-10-17T13:26:15;101140.16;;;33.09;36.74
12868;BME280;33517;49.866;8.320;2022-10-17T13:29:11;101143.91;;;33.13;37.09
12868;BME280;33517;49.866;8.320;2022-10-17T13:32:04;101146.31;;;32.77;37.37
12868;BME280;33517;49.866;8.320;2022-10-17T13:35:08;101143.94;;;32.28;38.08
12868;BME280;33517;49.866;8.320;2022-10-17T13:38:04;101151.13;;;31.67;38.97
12868;BME280;33517;49.866;8.320;2022-10-17T13:40:57;101143.88;;;31.52;39.00
12868;BME280;33517;49.866;8.320;2022-10-17T13:43:50;101146.75;;;31.32;40.13
12868;BME280;33517;49.866;8.320;2022-10-17T13:46:43;101144.91;;;31.85;39.59
12868;BME280;33517;49.866;8.320;2022-10-17T13:49:38;101158.53;;;31.85;39.15
12868;BME280;33517;49.866;8.320;2022-10-17T13:52:31;101157.84;;;31.74;40.05
12868;BME280;33517;49.866;8.320;2022-10-17T13:55:24;101152.59;;;31.16;40.45
12868;BME280;33517;49.866;8.320;2022-10-17T13:58:16;101158.75;;;30.14;41.45
12868;BME280;33517;49.866;8.320;2022-10-17T14:01:09;101154.16;;;29.08;43.29
12868;BME280;33517;49.866;8.320;2022-10-17T14:04:02;101160.91;;;28.24;45.40
12868;BME280;33517;49.866;8.320;2022-10-17T14:06:54;101152.41;;;27.69;45.95
12868;BME280;33517;49.866;8.320;2022-10-17T14:09:46;101153.78;;;27.35;47.92
12868;BME280;33517;49.866;8.320;2022-10-17T14:12:41;101155.78;;;26.96;49.59
12868;BME280;33517;49.866;8.320;2022-10-17T14:15:34;101157.50;;;26.59;51.23
12868;BME280;33517;49.866;8.320;2022-10-17T14:18:29;101154.16;;;26.30;53.09
12868;BME280;33517;49.866;8.320;2022-10-17T14:21:24;101150.94;;;26.11;52.88
12868;BME280;33517;49.866;8.320;2022-10-17T14:24:36;101156.34;;;25.95;54.17
12868;BME280;33517;49.866;8.320;2022-10-17T14:27:30;101148.84;;;25.80;54.48
12868;BME280;33517;49.866;8.320;2022-10-17T14:30:33;101154.91;;;25.54;55.46
12868;BME280;33517;49.866;8.320;2022-10-17T14:33:28;101161.31;;;25.36;56.44
12868;BME280;33517;49.866;8.320;2022-10-17T14:36:33;101167.94;;;25.29;56.39
12868;BME280;33517;49.866;8.320;2022-10-17T14:39:26;101173.63;;;25.32;56.44
12868;BME280;33517;49.866;8.320;2022-10-17T14:42:19;101173.72;;;25.49;56.48
12868;BME280;33517;49.866;8.320;2022-10-17T14:45:13;101175.50;;;25.60;56.67
12868;BME280;33517;49.866;8.320;2022-10-17T14:48:11;101181.84;;;25.71;55.68
12868;BME280;33517;49.866;8.320;2022-10-17T14:51:07;101176.56;;;25.76;56.15
12868;BME280;33517;49.866;8.320;2022-10-17T14:54:02;101191.66;;;25.77;55.60
12868;BME280;33517;49.866;8.320;2022-10-17T14:56:54;101188.59;;;25.68;55.88
12868;BME280;33517;49.866;8.320;2022-10-17T14:59:46;101192.41;;;25.55;55.90
12868;BME280;33517;49.866;8.320;2022-10-17T15:02:38;101188.72;;;25.45;56.66
12868;BME280;33517;49.866;8.320;2022-10-17T15:05:33;101196.31;;;25.48;56.70
12868;BME280;33517;49.866;8.320;2022-10-17T15:08:25;101198.09;;;25.42;56.94
12868;BME280;33517;49.866;8.320;2022-10-17T15:11:17;101197.44;;;25.35;57.77
12868;BME280;33517;49.866;8.320;2022-10-17T15:14:09;101205.88;;;25.39;58.08
12868;BME280;33517;49.866;8.320;2022-10-17T15:17:01;101197.69;;;25.34;58.71